createdAt,value
2023-03-15T00:04:01.760Z,2.14
2023-03-15T00:09:05.330Z,2.04
2023-03-15T00:14:09.913Z,1.80
2023-03-15T00:19:13.188Z,1.93
2023-03-15T00:24:16.132Z,1.48
2023-03-15T00:29:21.634Z,1.73
2023-03-15T00:34:26.617Z,1.93
2023-03-15T00:39:29.993Z,2.07
2023-03-15T00:44:34.223Z,1.99
2023-03-15T00:49:37.373Z,1.90
2023-03-15T00:54:41.812Z,1.95
2023-03-15T00:59:46.134Z,1.85
2023-03-15T01:04:49.275Z,1.81
2023-03-15T01:09:52.342Z,1.19
2023-03-15T01:14:56.681Z,1.42
2023-03-15T01:20:00.355Z,1.50
2023-03-15T01:25:03.296Z,1.47
2023-03-15T01:30:08.866Z,1.43
2023-03-15T01:35:11.975Z,1.61
2023-03-15T01:40:15.589Z,1.72
2023-03-15T01:46:24.549Z,1.63
2023-03-15T01:51:36.444Z,1.59
2023-03-15T01:56:42.937Z,1.21
2023-03-15T02:01:47.027Z,1.36
2023-03-15T02:06:51.986Z,1.39
2023-03-15T02:11:57.740Z,1.45
2023-03-15T02:17:00.651Z,1.47
2023-03-15T02:22:18.051Z,1.45
2023-03-15T02:27:28.800Z,1.66
2023-03-15T02:32:32.147Z,1.63
2023-03-15T02:37:35.108Z,1.46
2023-03-15T02:42:39.629Z,1.64
2023-03-15T02:47:42.658Z,1.57
2023-03-15T02:52:45.899Z,1.56
2023-03-15T02:57:50.653Z,1.09
2023-03-15T03:02:53.845Z,0.96
2023-03-15T03:07:56.794Z,1.24
2023-03-15T03:13:01.293Z,1.34
2023-03-15T03:18:13.279Z,1.36
2023-03-15T03:23:16.207Z,1.43
2023-03-15T03:28:21.021Z,1.45
2023-03-15T03:33:24.440Z,1.47
2023-03-15T03:38:27.684Z,1.52
2023-03-15T03:43:35.201Z,1.53
2023-03-15T03:48:38.321Z,1.54
2023-03-15T03:53:42.876Z,1.48
2023-03-15T03:58:48.097Z,1.46
2023-03-15T04:03:59.566Z,1.50
2023-03-15T04:09:04.216Z,1.27
2023-03-15T04:14:16.455Z,1.20
2023-03-15T04:19:21.814Z,1.05
2023-03-15T04:24:24.849Z,1.22
2023-03-15T04:29:49.458Z,1.29
2023-03-15T04:35:07.146Z,1.20
2023-03-15T04:40:35.155Z,1.20
2023-03-15T04:46:01.897Z,1.30
2023-03-15T04:51:18.710Z,1.13
2023-03-15T04:56:29.419Z,1.11
2023-03-15T05:01:54.011Z,1.20
2023-03-15T05:06:56.917Z,1.09
2023-03-15T05:12:26.206Z,1.23
2023-03-15T05:17:59.833Z,1.25
2023-03-15T05:23:14.747Z,1.24
2023-03-15T05:28:25.251Z,1.16
2023-03-15T05:33:47.966Z,1.11
2023-03-15T05:39:09.980Z,1.13
2023-03-15T05:44:34.037Z,1.25
2023-03-15T05:49:41.280Z,1.35
2023-03-15T05:55:02.878Z,1.37
2023-03-15T06:00:22.266Z,1.36
2023-03-15T06:05:32.945Z,2.24
2023-03-15T06:10:39.350Z,2.93
2023-03-15T06:15:44.783Z,3.29
2023-03-15T06:20:49.321Z,4.13
2023-03-15T06:25:54.117Z,4.38
2023-03-15T06:30:59.269Z,4.25
2023-03-15T06:36:14.269Z,4.51
2023-03-15T06:41:17.563Z,4.44
2023-03-15T06:46:20.658Z,5.11
2023-03-15T06:51:25.029Z,5.25
2023-03-15T06:56:28.491Z,5.28
2023-03-15T07:01:31.473Z,5.67
2023-03-15T07:06:36.862Z,5.36
2023-03-15T07:11:39.746Z,5.58
2023-03-15T07:16:42.664Z,5.74
2023-03-15T07:21:47.073Z,5.61
2023-03-15T07:26:54.721Z,5.97
2023-03-15T07:31:57.661Z,6.79
2023-03-15T07:37:01.948Z,6.51
2023-03-15T07:42:07.266Z,6.93
2023-03-15T07:47:16.513Z,6.76
2023-03-15T07:52:21.412Z,6.56
2023-03-15T07:57:24.588Z,7.13
2023-03-15T08:02:30.205Z,7.25
2023-03-15T08:07:35.557Z,7.77
2023-03-15T08:12:40.320Z,7.30
2023-03-15T08:17:43.595Z,7.39
2023-03-15T08:22:48.972Z,7.07
2023-03-15T08:27:52.674Z,6.74
2023-03-15T08:32:55.701Z,5.93
2023-03-15T08:37:59.975Z,5.86
2023-03-15T08:43:02.915Z,5.55
2023-03-15T08:48:06.043Z,5.62
2023-03-15T08:53:10.998Z,5.49
2023-03-15T08:58:14.375Z,4.58
2023-03-15T09:03:17.320Z,3.88
2023-03-15T09:08:21.580Z,3.70
2023-03-15T09:13:25.187Z,4.00
2023-03-15T09:18:28.482Z,4.49
2023-03-15T09:23:32.827Z,4.72
2023-03-15T09:28:35.774Z,5.00
2023-03-15T09:33:38.734Z,5.05
2023-03-15T09:38:43.859Z,5.41
2023-03-15T09:44:02.223Z,5.10
2023-03-15T09:49:14.297Z,5.42
2023-03-15T09:54:24.217Z,5.08
2023-03-15T09:59:33.672Z,5.10
2023-03-15T10:04:40.624Z,4.47
2023-03-15T10:09:45.015Z,4.76
2023-03-15T10:15:17.569Z,4.71
2023-03-15T10:20:24.291Z,4.51
2023-03-15T10:25:30.753Z,4.77
2023-03-15T10:30:35.823Z,4.82
2023-03-15T10:35:39.378Z,4.64
2023-03-15T10:40:47.231Z,4.42
2023-03-15T10:46:01.018Z,4.50
2023-03-15T10:51:07.410Z,4.40
2023-03-15T10:56:22.279Z,4.86
2023-03-15T11:01:29.002Z,4.55
2023-03-15T11:06:42.155Z,4.51
2023-03-15T11:12:01.996Z,4.82
2023-03-15T11:17:07.206Z,4.98
2023-03-15T11:22:15.019Z,4.64
2023-03-15T11:27:22.750Z,4.79
2023-03-15T11:32:28.512Z,4.78
2023-03-15T11:37:39.306Z,4.60
2023-03-15T11:42:50.532Z,4.48
2023-03-15T11:47:57.235Z,4.63
2023-03-15T11:53:03.902Z,4.75
2023-03-15T11:58:30.061Z,4.86
2023-03-15T12:03:40.086Z,5.14
2023-03-15T12:08:46.833Z,5.09
2023-03-15T12:14:06.686Z,5.90
2023-03-15T12:19:15.287Z,4.75
2023-03-15T12:24:23.658Z,5.41
2023-03-15T12:29:30.211Z,6.14
2023-03-15T12:34:54.951Z,5.99
2023-03-15T12:40:02.660Z,4.69
2023-03-15T12:45:39.033Z,5.29
2023-03-15T12:50:52.825Z,5.46
2023-03-15T12:56:02.869Z,5.68
2023-03-15T13:01:16.329Z,5.74
2023-03-15T13:06:31.301Z,5.83
2023-03-15T13:11:41.260Z,5.49
2023-03-15T13:16:51.119Z,5.75
2023-03-15T13:22:04.872Z,5.60
2023-03-15T13:27:13.193Z,6.02
2023-03-15T13:32:20.268Z,6.14
2023-03-15T13:37:26.708Z,6.77
2023-03-15T13:42:29.720Z,7.34
2023-03-15T13:47:35.855Z,6.99
2023-03-15T13:52:38.977Z,6.51
2023-03-15T13:57:42.342Z,6.21
2023-03-15T14:02:49.616Z,6.06
2023-03-15T14:07:59.262Z,6.33
2023-03-15T14:13:22.385Z,6.20
2023-03-15T14:18:31.878Z,6.28
2023-03-15T14:23:39.837Z,6.26
2023-03-15T14:28:43.753Z,6.25
2023-03-15T14:33:54.359Z,6.50
2023-03-15T14:39:00.170Z,6.40
2023-03-15T14:44:04.119Z,6.46
2023-03-15T14:49:11.177Z,6.70
2023-03-15T14:54:14.319Z,5.98
2023-03-15T14:59:18.085Z,6.33
2023-03-15T15:04:23.062Z,6.30
2023-03-15T15:09:28.205Z,6.12
2023-03-15T15:14:31.740Z,6.44
2023-03-15T15:19:36.056Z,6.67
2023-03-15T15:24:39.033Z,6.60
2023-03-15T15:29:41.986Z,6.39
2023-03-15T15:34:46.348Z,6.51
2023-03-15T15:39:49.311Z,6.33
2023-03-15T15:44:53.111Z,5.11
2023-03-15T15:49:57.429Z,4.80
2023-03-15T15:55:02.249Z,5.09
2023-03-15T16:00:06.602Z,4.67
2023-03-15T16:05:32.990Z,4.80
2023-03-15T16:10:36.193Z,4.86
2023-03-15T16:15:39.256Z,4.67
2023-03-15T16:20:44.068Z,4.61
2023-03-15T16:25:49.144Z,4.34
2023-03-15T16:30:52.231Z,4.61
2023-03-15T16:35:56.593Z,4.61
2023-03-15T16:41:01.365Z,4.74
2023-03-15T16:46:13.432Z,4.76
2023-03-15T16:51:18.138Z,4.72
2023-03-15T16:56:21.071Z,4.50
2023-03-15T17:01:25.844Z,4.31
2023-03-15T17:06:31.427Z,4.23
2023-03-15T17:11:34.385Z,4.21
2023-03-15T17:16:37.354Z,4.25
2023-03-15T17:21:43.460Z,4.05
2023-03-15T17:26:46.968Z,3.82
2023-03-15T17:31:49.923Z,3.84
2023-03-15T17:36:56.018Z,3.76
2023-03-15T17:42:00.198Z,3.44
2023-03-15T17:47:05.947Z,3.15
2023-03-15T17:52:15.222Z,2.93
2023-03-15T17:57:18.163Z,2.82
2023-03-15T18:02:21.787Z,2.51
2023-03-15T18:07:28.799Z,2.92
2023-03-15T18:12:31.762Z,2.98
2023-03-15T18:17:34.858Z,2.95
2023-03-15T18:22:40.874Z,2.92
2023-03-15T18:27:43.819Z,2.97
2023-03-15T18:32:47.118Z,2.74
2023-03-15T18:37:51.617Z,2.81
2023-03-15T18:42:55.068Z,2.63
2023-03-15T18:47:59.846Z,2.54
2023-03-15T18:53:06.150Z,2.41
2023-03-15T18:58:12.934Z,2.41
2023-03-15T19:03:15.917Z,2.44
2023-03-15T19:08:20.317Z,2.35
2023-03-15T19:13:23.418Z,2.40
2023-03-15T19:18:26.686Z,2.31
2023-03-15T19:23:32.157Z,2.34
2023-03-15T19:28:35.252Z,2.21
2023-03-15T19:33:38.547Z,2.07
2023-03-15T19:38:42.806Z,2.03
2023-03-15T19:43:46.195Z,1.92
2023-03-15T19:48:49.355Z,1.89
2023-03-15T19:53:53.769Z,1.74
2023-03-15T19:58:57.228Z,1.70
2023-03-15T20:04:00.777Z,1.63
2023-03-15T20:09:06.024Z,1.56
2023-03-15T20:14:09.237Z,1.62
2023-03-15T20:19:12.144Z,1.70
2023-03-15T20:24:16.452Z,1.86
2023-03-15T20:29:19.514Z,1.73
2023-03-15T20:34:23.036Z,1.84
2023-03-15T20:39:27.335Z,1.83
2023-03-15T20:44:30.412Z,1.58
2023-03-15T20:49:33.313Z,1.06
2023-03-15T20:54:38.039Z,1.01
2023-03-15T20:59:40.892Z,0.92
2023-03-15T21:04:44.542Z,0.99
2023-03-15T21:09:48.853Z,1.13
2023-03-15T21:14:51.911Z,1.20
2023-03-15T21:19:54.851Z,1.17
2023-03-15T21:24:59.110Z,1.07
2023-03-15T21:30:02.460Z,0.83
2023-03-15T21:35:05.971Z,0.89
2023-03-15T21:40:11.790Z,0.84
2023-03-15T21:45:14.870Z,0.85
2023-03-15T21:50:17.880Z,0.83
2023-03-15T21:55:22.724Z,0.79
2023-03-15T22:00:26.474Z,0.66
2023-03-15T22:05:29.584Z,0.57
2023-03-15T22:10:33.876Z,0.46
2023-03-15T22:15:36.813Z,0.63
2023-03-15T22:20:39.838Z,0.63
2023-03-15T22:25:44.100Z,0.46
2023-03-15T22:30:48.984Z,0.23
2023-03-15T22:35:56.729Z,0.16
2023-03-15T22:41:06.631Z,0.20
2023-03-15T22:46:10.052Z,0.32
2023-03-15T22:51:16.066Z,0.28
2023-03-15T22:56:20.501Z,0.44
2023-03-15T23:01:23.483Z,0.47
2023-03-15T23:06:26.511Z,0.76
2023-03-15T23:11:30.767Z,0.83
2023-03-15T23:16:34.032Z,0.74
2023-03-15T23:21:37.186Z,0.82
2023-03-15T23:26:41.872Z,0.68
2023-03-15T23:31:44.798Z,0.49
2023-03-15T23:36:47.702Z,0.52
2023-03-15T23:41:51.969Z,0.65
2023-03-15T23:46:55.019Z,0.52
2023-03-15T23:51:57.927Z,0.60
2023-03-15T23:57:02.206Z,0.63
